createdAt,value
2024-02-13T00:01:22.109Z,5.50
2024-02-13T00:03:48.723Z,5.72
2024-02-13T00:06:18.614Z,5.53
2024-02-13T00:08:46.297Z,5.29
2024-02-13T00:11:14.631Z,5.18
2024-02-13T00:13:44.289Z,5.16
2024-02-13T00:16:18.547Z,5.19
2024-02-13T00:18:47.673Z,5.08
2024-02-13T00:21:16.443Z,4.90
2024-02-13T00:23:43.324Z,4.70
2024-02-13T00:26:10.336Z,4.61
2024-02-13T00:28:38.366Z,4.78
2024-02-13T00:31:10.424Z,4.79
2024-02-13T00:33:37.060Z,4.75
2024-02-13T00:36:04.701Z,4.94
2024-02-13T00:38:31.272Z,4.90
2024-02-13T00:40:57.837Z,4.73
2024-02-13T00:43:24.669Z,4.77
2024-02-13T00:45:53.650Z,4.77
2024-02-13T00:48:25.054Z,4.62
2024-02-13T00:50:52.892Z,4.54
2024-02-13T00:53:22.536Z,4.54
2024-02-13T00:55:50.659Z,4.42
2024-02-13T00:58:17.292Z,4.51
2024-02-13T01:00:43.979Z,4.49
2024-02-13T01:03:13.256Z,4.49
2024-02-13T01:05:42.233Z,4.40
2024-02-13T01:08:09.289Z,4.44
2024-02-13T01:10:35.820Z,4.35
2024-02-13T01:13:02.349Z,4.31
2024-02-13T01:15:29.817Z,4.43
2024-02-13T01:17:56.486Z,4.40
2024-02-13T01:20:25.345Z,4.37
2024-02-13T01:22:54.872Z,4.30
2024-02-13T01:25:21.398Z,4.29
2024-02-13T01:27:48.355Z,4.46
2024-02-13T01:30:15.146Z,4.52
2024-02-13T01:32:44.880Z,4.55
2024-02-13T01:35:12.618Z,4.54
2024-02-13T01:37:40.807Z,4.44
2024-02-13T01:40:08.391Z,4.67
2024-02-13T01:42:41.091Z,4.57
2024-02-13T01:45:08.492Z,4.51
2024-02-13T01:47:37.080Z,4.69
2024-02-13T01:50:07.016Z,4.62
2024-02-13T01:52:35.902Z,4.65
2024-02-13T01:55:05.891Z,4.45
2024-02-13T01:57:36.396Z,4.27
2024-02-13T02:00:06.788Z,4.09
2024-02-13T02:02:36.476Z,4.06
2024-02-13T02:05:03.037Z,4.09
2024-02-13T02:07:31.863Z,4.11
2024-02-13T02:10:01.634Z,4.13
2024-02-13T02:12:28.093Z,3.99
2024-02-13T02:14:54.782Z,4.02
2024-02-13T02:17:21.324Z,4.02
2024-02-13T02:19:47.809Z,3.78
2024-02-13T02:22:14.292Z,3.77
2024-02-13T02:24:40.747Z,4.08
2024-02-13T02:27:07.310Z,4.10
2024-02-13T02:29:34.254Z,3.91
2024-02-13T02:32:01.011Z,4.13
2024-02-13T02:34:27.467Z,4.22
2024-02-13T02:36:53.983Z,4.11
2024-02-13T02:39:20.649Z,4.19
2024-02-13T02:41:53.246Z,4.22
2024-02-13T02:44:22.935Z,4.18
2024-02-13T02:46:51.807Z,4.18
2024-02-13T02:49:20.225Z,4.04
2024-02-13T02:51:47.920Z,4.31
2024-02-13T02:54:14.826Z,4.29
2024-02-13T02:56:44.672Z,4.10
2024-02-13T02:59:14.029Z,4.21
2024-02-13T03:01:42.590Z,4.27
2024-02-13T03:04:11.974Z,4.33
2024-02-13T03:06:42.117Z,4.33
2024-02-13T03:09:11.274Z,4.29
2024-02-13T03:11:40.206Z,4.31
2024-02-13T03:14:06.743Z,4.25
2024-02-13T03:16:36.097Z,4.25
2024-02-13T03:19:04.420Z,4.24
2024-02-13T03:21:38.889Z,4.24
2024-02-13T03:24:08.114Z,4.22
2024-02-13T03:26:37.260Z,4.17
2024-02-13T03:29:03.856Z,4.00
2024-02-13T03:31:30.320Z,3.85
2024-02-13T03:33:56.993Z,3.62
2024-02-13T03:36:23.539Z,3.63
2024-02-13T03:38:54.522Z,3.70
2024-02-13T03:41:21.734Z,3.61
2024-02-13T03:43:50.464Z,3.81
2024-02-13T03:46:17.023Z,3.67
2024-02-13T03:48:43.596Z,3.61
2024-02-13T03:51:12.604Z,3.71
2024-02-13T03:53:41.462Z,3.70
2024-02-13T03:56:09.229Z,3.64
2024-02-13T03:58:36.161Z,3.64
2024-02-13T04:01:04.969Z,3.67
2024-02-13T04:03:33.946Z,3.62
2024-02-13T04:06:02.905Z,3.57
2024-02-13T04:08:31.941Z,3.51
2024-02-13T04:10:58.723Z,3.60
2024-02-13T04:13:27.491Z,3.45
2024-02-13T04:15:56.801Z,3.50
2024-02-13T04:18:25.803Z,3.48
2024-02-13T04:20:52.379Z,3.57
2024-02-13T04:23:18.903Z,3.39
2024-02-13T04:25:50.351Z,3.45
2024-02-13T04:28:21.585Z,3.45
2024-02-13T04:30:48.803Z,3.42
2024-02-13T04:33:15.532Z,3.57
2024-02-13T04:35:42.108Z,3.52
2024-02-13T04:38:10.554Z,3.56
2024-02-13T04:40:42.615Z,3.55
2024-02-13T04:43:11.174Z,3.48
2024-02-13T04:45:39.940Z,3.44
2024-02-13T04:48:09.532Z,3.50
2024-02-13T04:50:36.108Z,3.52
2024-02-13T04:53:03.987Z,3.59
2024-02-13T04:55:35.367Z,3.54
2024-02-13T04:58:05.566Z,3.48
2024-02-13T05:00:38.229Z,3.59
2024-02-13T05:03:18.203Z,3.59
2024-02-13T05:06:03.760Z,3.51
2024-02-13T05:08:31.534Z,3.55
2024-02-13T05:10:58.054Z,3.28
2024-02-13T05:13:24.613Z,3.16
2024-02-13T05:15:51.474Z,3.37
2024-02-13T05:18:24.286Z,3.19
2024-02-13T05:20:51.288Z,3.06
2024-02-13T05:23:21.801Z,3.21
2024-02-13T05:25:49.829Z,3.33
2024-02-13T05:28:17.099Z,3.24
2024-02-13T05:30:43.665Z,3.23
2024-02-13T05:33:13.003Z,3.21
2024-02-13T05:35:40.125Z,3.02
2024-02-13T05:38:10.688Z,2.99
2024-02-13T05:40:39.615Z,2.85
2024-02-13T05:43:08.347Z,2.97
2024-02-13T05:45:35.600Z,2.99
2024-02-13T05:48:07.084Z,2.91
2024-02-13T05:50:35.904Z,2.87
2024-02-13T05:53:02.583Z,2.76
2024-02-13T05:55:29.590Z,2.82
2024-02-13T05:57:56.124Z,2.99
2024-02-13T06:00:25.602Z,2.92
2024-02-13T06:03:02.137Z,2.93
2024-02-13T06:05:31.648Z,2.86
2024-02-13T06:07:58.282Z,2.88
2024-02-13T06:10:25.935Z,2.34
2024-02-13T06:12:52.440Z,2.04
2024-02-13T06:15:18.901Z,1.80
2024-02-13T06:17:45.715Z,1.81
2024-02-13T06:20:13.861Z,1.29
2024-02-13T06:22:41.036Z,1.72
2024-02-13T06:25:09.961Z,1.95
2024-02-13T06:27:36.620Z,2.24
2024-02-13T06:30:06.133Z,2.43
2024-02-13T06:32:32.696Z,2.40
2024-02-13T06:34:59.309Z,2.45
2024-02-13T06:37:28.119Z,2.56
2024-02-13T06:39:59.565Z,2.78
2024-02-13T06:42:26.032Z,2.71
2024-02-13T06:44:55.136Z,2.67
2024-02-13T06:47:27.169Z,2.63
2024-02-13T06:49:56.005Z,2.87
2024-02-13T06:52:22.957Z,2.82
2024-02-13T06:54:50.883Z,2.77
2024-02-13T06:57:17.875Z,2.71
2024-02-13T06:59:44.433Z,2.75
2024-02-13T07:02:11.435Z,2.87
2024-02-13T07:04:39.016Z,2.81
2024-02-13T07:07:19.422Z,2.83
2024-02-13T07:09:54.770Z,2.89
2024-02-13T07:12:23.653Z,2.50
2024-02-13T07:14:54.057Z,1.93
2024-02-13T07:17:20.572Z,1.85
2024-02-13T07:19:47.274Z,2.32
2024-02-13T07:22:18.635Z,2.35
2024-02-13T07:24:45.678Z,2.48
2024-02-13T07:27:17.433Z,2.65
2024-02-13T07:29:46.318Z,2.63
2024-02-13T07:32:13.622Z,2.64
2024-02-13T07:34:43.784Z,2.77
2024-02-13T07:37:10.492Z,2.76
2024-02-13T07:39:37.013Z,2.91
2024-02-13T07:42:06.289Z,3.07
2024-02-13T07:44:33.102Z,3.09
2024-02-13T07:46:59.745Z,3.22
2024-02-13T07:49:28.664Z,3.20
2024-02-13T07:51:57.622Z,3.36
2024-02-13T07:54:29.694Z,3.28
2024-02-13T07:56:59.429Z,3.24
2024-02-13T07:59:30.610Z,3.33
2024-02-13T08:01:58.487Z,3.48
2024-02-13T08:04:27.505Z,3.79
2024-02-13T08:06:59.447Z,3.91
2024-02-13T08:09:25.970Z,3.97
2024-02-13T08:11:55.201Z,4.17
2024-02-13T08:14:21.812Z,4.30
2024-02-13T08:16:50.129Z,4.42
2024-02-13T08:19:23.950Z,4.55
2024-02-13T08:21:50.510Z,4.69
2024-02-13T08:24:18.107Z,4.82
2024-02-13T08:26:46.064Z,4.92
2024-02-13T08:29:12.568Z,5.06
2024-02-13T08:31:41.460Z,5.07
2024-02-13T08:34:09.115Z,5.18
2024-02-13T08:36:38.207Z,5.20
2024-02-13T08:39:07.188Z,5.22
2024-02-13T08:41:35.801Z,5.50
2024-02-13T08:44:04.637Z,5.42
2024-02-13T08:46:31.431Z,5.47
2024-02-13T08:49:02.138Z,5.42
2024-02-13T08:51:29.379Z,5.57
2024-02-13T08:53:57.451Z,5.72
2024-02-13T08:56:24.092Z,5.84
2024-02-13T08:58:53.959Z,5.84
2024-02-13T09:01:23.235Z,5.93
2024-02-13T09:03:52.062Z,6.05
2024-02-13T09:06:21.716Z,6.18
2024-02-13T09:08:53.257Z,6.18
2024-02-13T09:11:20.163Z,6.22
2024-02-13T09:13:47.165Z,6.36
2024-02-13T09:16:17.164Z,6.37
2024-02-13T09:18:43.934Z,6.62
2024-02-13T09:21:11.568Z,6.53
2024-02-13T09:23:38.462Z,6.57
2024-02-13T09:26:05.350Z,6.51
2024-02-13T09:28:32.312Z,6.82
2024-02-13T09:31:01.222Z,7.11
2024-02-13T09:33:30.884Z,7.35
2024-02-13T09:35:59.910Z,7.74
2024-02-13T09:38:27.013Z,7.59
2024-02-13T09:40:53.808Z,7.71
2024-02-13T09:43:23.717Z,8.11
2024-02-13T09:45:50.384Z,8.13
2024-02-13T09:48:26.908Z,8.24
2024-02-13T09:50:59.484Z,7.73
2024-02-13T09:53:28.346Z,8.22
2024-02-13T09:55:58.494Z,7.77
2024-02-13T09:58:26.011Z,8.35
2024-02-13T10:00:59.638Z,8.61
2024-02-13T10:03:30.159Z,8.71
2024-02-13T10:05:57.406Z,8.60
2024-02-13T10:08:29.338Z,8.93
2024-02-13T10:11:03.555Z,8.81
2024-02-13T10:13:43.724Z,9.15
2024-02-13T10:16:30.196Z,8.81
2024-02-13T10:18:58.974Z,9.11
2024-02-13T10:21:30.558Z,9.16
2024-02-13T10:24:08.037Z,9.23
2024-02-13T10:26:35.947Z,9.39
2024-02-13T10:29:02.568Z,9.24
2024-02-13T10:31:35.882Z,9.01
2024-02-13T10:34:06.542Z,8.97
2024-02-13T10:36:36.268Z,9.14
2024-02-13T10:39:10.247Z,9.38
2024-02-13T10:41:45.075Z,9.15
2024-02-13T10:44:15.388Z,9.86
2024-02-13T10:46:43.674Z,10.03
2024-02-13T10:49:32.353Z,9.38
2024-02-13T10:52:00.443Z,9.14
2024-02-13T10:54:27.600Z,9.51
2024-02-13T10:56:56.190Z,9.67
2024-02-13T10:59:29.297Z,10.02
2024-02-13T11:02:00.133Z,10.14
2024-02-13T11:04:31.398Z,10.09
2024-02-13T11:06:59.778Z,9.86
2024-02-13T11:09:26.685Z,9.96
2024-02-13T11:11:53.443Z,10.16
2024-02-13T11:14:26.460Z,10.09
2024-02-13T11:17:10.433Z,10.10
2024-02-13T11:19:42.482Z,10.11
2024-02-13T11:22:13.564Z,9.47
2024-02-13T11:24:50.283Z,9.63
2024-02-13T11:27:26.856Z,10.41
2024-02-13T11:30:00.682Z,10.77
2024-02-13T11:32:33.156Z,10.97
2024-02-13T11:35:00.538Z,11.56
2024-02-13T11:37:31.458Z,11.44
2024-02-13T11:39:58.857Z,11.84
2024-02-13T11:42:33.633Z,11.77
2024-02-13T11:45:01.735Z,12.39
2024-02-13T11:47:28.557Z,12.40
2024-02-13T11:52:24.417Z,12.43
2024-02-13T11:54:51.775Z,12.80
2024-02-13T11:57:26.471Z,12.63
2024-02-13T12:00:05.384Z,12.28
2024-02-13T12:02:34.527Z,11.73
2024-02-13T12:05:01.494Z,12.12
2024-02-13T12:07:29.074Z,11.94
2024-02-13T12:09:56.120Z,12.44
2024-02-13T12:12:25.529Z,12.51
2024-02-13T12:14:53.856Z,12.58
2024-02-13T12:17:22.372Z,12.58
2024-02-13T12:19:49.589Z,12.02
2024-02-13T12:22:17.950Z,12.31
2024-02-13T12:24:46.613Z,12.28
2024-02-13T12:27:16.768Z,12.99
2024-02-13T12:29:49.074Z,12.83
2024-02-13T12:32:21.401Z,12.97
2024-02-13T12:34:49.941Z,13.02
2024-02-13T12:37:18.565Z,12.47
2024-02-13T12:39:47.866Z,12.51
2024-02-13T12:42:14.810Z,12.37
2024-02-13T12:44:45.154Z,12.09
2024-02-13T12:47:15.013Z,11.99
2024-02-13T12:49:47.800Z,11.22
2024-02-13T12:52:23.452Z,11.29
2024-02-13T12:54:50.992Z,11.27
2024-02-13T12:57:18.265Z,11.27
2024-02-13T12:59:45.676Z,11.55
2024-02-13T13:02:14.799Z,12.07
2024-02-13T13:04:43.985Z,12.42
2024-02-13T13:07:15.656Z,12.65
2024-02-13T13:09:43.930Z,12.81
2024-02-13T13:12:13.567Z,13.02
2024-02-13T13:14:45.405Z,12.36
2024-02-13T13:17:12.414Z,12.10
2024-02-13T13:19:39.099Z,11.90
2024-02-13T13:22:06.680Z,12.07
2024-02-13T13:24:34.126Z,11.86
2024-02-13T13:27:02.078Z,11.49
2024-02-13T13:29:30.748Z,11.53
2024-02-13T13:31:57.325Z,11.73
2024-02-13T13:34:29.254Z,12.27
2024-02-13T13:36:56.303Z,12.47
2024-02-13T13:39:30.196Z,12.82
2024-02-13T13:42:09.654Z,12.68
2024-02-13T13:44:36.745Z,12.57
2024-02-13T13:47:06.114Z,12.32
2024-02-13T13:49:32.706Z,12.44
2024-02-13T13:51:59.328Z,12.36
2024-02-13T13:54:25.939Z,12.44
2024-02-13T13:56:52.481Z,12.49
2024-02-13T13:59:21.290Z,12.28
2024-02-13T14:01:47.856Z,12.48
2024-02-13T14:04:16.673Z,12.77
2024-02-13T14:06:43.287Z,12.59
2024-02-13T14:09:09.978Z,12.94
2024-02-13T14:11:38.952Z,13.03
2024-02-13T14:14:08.357Z,13.35
2024-02-13T14:16:34.833Z,13.46
2024-02-13T14:19:01.442Z,13.33
2024-02-13T14:21:33.103Z,13.00
2024-02-13T14:23:59.822Z,12.79
2024-02-13T14:26:26.794Z,12.59
2024-02-13T14:28:53.257Z,12.55
2024-02-13T14:31:19.788Z,12.41
2024-02-13T14:33:46.597Z,12.30
2024-02-13T14:36:15.421Z,12.34
2024-02-13T14:38:42.139Z,12.72
2024-02-13T14:41:09.551Z,11.88
2024-02-13T14:43:38.469Z,11.99
2024-02-13T14:46:06.040Z,12.02
2024-02-13T14:48:34.959Z,12.09
2024-02-13T14:51:04.212Z,11.96
2024-02-13T14:53:33.050Z,11.54
2024-02-13T14:56:02.115Z,11.68
2024-02-13T14:58:38.228Z,11.62
2024-02-13T15:01:10.263Z,11.54
2024-02-13T15:03:37.423Z,11.38
2024-02-13T15:06:06.609Z,11.51
2024-02-13T15:08:35.542Z,11.53
2024-02-13T15:11:04.578Z,11.54
2024-02-13T15:13:31.183Z,11.50
2024-02-13T15:16:00.785Z,11.27
2024-02-13T15:18:28.712Z,11.44
2024-02-13T15:20:57.599Z,11.36
2024-02-13T15:23:28.994Z,11.07
2024-02-13T15:25:56.251Z,11.06
2024-02-13T15:28:23.422Z,10.87
2024-02-13T15:30:52.492Z,10.84
2024-02-13T15:33:22.540Z,10.86
2024-02-13T15:36:06.682Z,10.86
2024-02-13T15:38:52.243Z,10.85
2024-02-13T15:41:37.492Z,10.76
2024-02-13T15:44:24.826Z,10.62
2024-02-13T15:46:59.460Z,10.49
2024-02-13T15:49:26.328Z,10.43
2024-02-13T15:51:53.521Z,10.26
2024-02-13T15:54:20.010Z,10.29
2024-02-13T15:56:50.556Z,9.93
2024-02-13T15:59:19.627Z,10.07
2024-02-13T16:01:48.904Z,10.17
2024-02-13T16:04:21.596Z,10.04
2024-02-13T16:06:55.865Z,10.22
2024-02-13T16:09:22.627Z,10.17
2024-02-13T16:11:49.538Z,10.19
2024-02-13T16:14:17.775Z,10.18
2024-02-13T16:16:44.319Z,10.09
2024-02-13T16:19:14.086Z,10.08
2024-02-13T16:21:45.542Z,9.87
2024-02-13T16:24:14.331Z,9.85
2024-02-13T16:26:43.145Z,9.85
2024-02-13T16:29:09.625Z,9.95
2024-02-13T16:31:36.504Z,9.93
2024-02-13T16:34:03.255Z,9.69
2024-02-13T16:36:29.820Z,9.87
2024-02-13T16:38:56.387Z,9.87
2024-02-13T16:41:22.981Z,9.54
2024-02-13T16:43:50.304Z,9.66
2024-02-13T16:46:22.488Z,9.79
2024-02-13T16:48:53.204Z,9.82
2024-02-13T16:51:24.159Z,9.84
2024-02-13T16:53:50.874Z,9.88
2024-02-13T16:56:18.286Z,9.91
2024-02-13T16:58:45.259Z,9.72
2024-02-13T17:01:12.185Z,9.68
2024-02-13T17:03:39.430Z,9.43
2024-02-13T17:06:07.392Z,9.54
2024-02-13T17:08:40.387Z,9.55
2024-02-13T17:11:10.405Z,9.49
2024-02-13T17:13:37.185Z,9.37
2024-02-13T17:16:03.810Z,9.35
2024-02-13T17:18:31.028Z,9.38
2024-02-13T17:20:59.838Z,9.07
2024-02-13T17:23:26.327Z,9.19
2024-02-13T17:25:52.914Z,8.99
2024-02-13T17:28:21.768Z,9.19
2024-02-13T17:30:52.087Z,9.10
2024-02-13T17:33:19.349Z,9.09
2024-02-13T17:35:46.113Z,9.04
2024-02-13T17:38:15.173Z,9.00
2024-02-13T17:40:41.858Z,8.99
2024-02-13T17:43:15.873Z,8.98
2024-02-13T17:45:44.978Z,8.91
2024-02-13T17:48:11.530Z,8.85
2024-02-13T17:50:38.256Z,8.75
2024-02-13T17:53:04.962Z,8.68
2024-02-13T17:55:31.430Z,8.65
2024-02-13T17:57:58.441Z,8.67
2024-02-13T18:00:30.512Z,8.54
2024-02-13T18:02:58.528Z,8.52
2024-02-13T18:05:25.138Z,8.44
2024-02-13T18:07:54.250Z,8.42
2024-02-13T18:10:20.747Z,8.42
2024-02-13T18:12:52.222Z,8.33
2024-02-13T18:15:18.761Z,8.22
2024-02-13T18:17:49.874Z,8.18
2024-02-13T18:20:17.022Z,8.07
2024-02-13T18:22:45.383Z,8.03
2024-02-13T18:25:12.087Z,7.92
2024-02-13T18:27:41.077Z,7.92
2024-02-13T18:30:08.762Z,7.91
2024-02-13T18:32:37.761Z,7.75
2024-02-13T18:35:04.504Z,7.61
2024-02-13T18:37:33.326Z,7.35
2024-02-13T18:39:59.857Z,7.33
2024-02-13T18:42:28.860Z,7.25
2024-02-13T18:44:57.223Z,7.09
2024-02-13T18:47:23.845Z,7.26
2024-02-13T18:49:53.541Z,6.94
2024-02-13T18:52:20.090Z,7.15
2024-02-13T18:54:49.093Z,6.82
2024-02-13T18:57:15.578Z,6.89
2024-02-13T18:59:45.141Z,6.84
2024-02-13T19:02:11.727Z,6.85
2024-02-13T19:04:39.846Z,6.64
2024-02-13T19:07:06.496Z,6.39
2024-02-13T19:09:33.032Z,6.45
2024-02-13T19:11:59.719Z,6.02
2024-02-13T19:14:26.430Z,6.39
2024-02-13T19:16:54.204Z,6.38
2024-02-13T19:19:22.878Z,6.55
2024-02-13T19:21:49.423Z,6.64
2024-02-13T19:24:16.180Z,6.41
2024-02-13T19:26:44.910Z,6.35
2024-02-13T19:29:11.477Z,6.23
2024-02-13T19:31:37.989Z,6.20
2024-02-13T19:34:04.661Z,6.26
2024-02-13T19:36:32.460Z,6.13
2024-02-13T19:39:02.755Z,6.13
2024-02-13T19:41:32.238Z,6.20
2024-02-13T19:43:59.712Z,6.16
2024-02-13T19:46:31.026Z,6.00
2024-02-13T19:48:57.782Z,6.00
2024-02-13T19:51:24.828Z,6.06
2024-02-13T19:53:52.623Z,6.02
2024-02-13T19:56:19.293Z,5.99
2024-02-13T19:58:45.902Z,5.90
2024-02-13T20:01:12.776Z,5.86
2024-02-13T20:03:40.167Z,6.04
2024-02-13T20:06:09.314Z,6.05
2024-02-13T20:08:36.813Z,5.71
2024-02-13T20:11:03.862Z,5.72
2024-02-13T20:13:36.999Z,5.93
2024-02-13T20:16:04.167Z,5.99
2024-02-13T20:18:33.986Z,5.67
2024-02-13T20:21:00.704Z,5.81
2024-02-13T20:23:28.076Z,5.64
2024-02-13T20:25:54.643Z,5.75
2024-02-13T20:28:23.244Z,5.61
2024-02-13T20:30:49.703Z,5.51
2024-02-13T20:33:18.812Z,5.58
2024-02-13T20:36:02.824Z,5.52
2024-02-13T20:38:31.663Z,5.67
2024-02-13T20:40:58.731Z,5.33
2024-02-13T20:43:27.948Z,5.44
2024-02-13T20:45:54.701Z,5.51
2024-02-13T20:48:22.338Z,5.58
2024-02-13T20:50:49.036Z,5.41
2024-02-13T20:53:15.819Z,5.42
2024-02-13T20:55:42.423Z,5.38
2024-02-13T20:58:09.051Z,5.39
2024-02-13T21:00:36.395Z,5.14
2024-02-13T21:03:05.481Z,5.18
2024-02-13T21:05:32.762Z,4.91
2024-02-13T21:08:01.313Z,4.92
2024-02-13T21:10:28.587Z,4.68
2024-02-13T21:12:57.977Z,4.75
2024-02-13T21:15:26.755Z,4.65
2024-02-13T21:17:55.503Z,4.76
2024-02-13T21:20:30.662Z,4.78
2024-02-13T21:23:15.998Z,4.76
2024-02-13T21:25:44.966Z,5.07
2024-02-13T21:28:11.400Z,5.14
2024-02-13T21:30:40.479Z,5.22
2024-02-13T21:33:08.517Z,5.36
2024-02-13T21:35:35.315Z,5.19
2024-02-13T21:38:03.346Z,5.08
2024-02-13T21:40:30.572Z,4.71
2024-02-13T21:42:57.036Z,4.60
2024-02-13T21:45:27.783Z,4.57
2024-02-13T21:47:54.941Z,4.41
2024-02-13T21:50:25.611Z,4.39
2024-02-13T21:52:52.180Z,4.59
2024-02-13T21:55:18.772Z,4.76
2024-02-13T21:57:48.224Z,4.95
2024-02-13T22:00:15.363Z,4.91
2024-02-13T22:02:42.281Z,5.03
2024-02-13T22:05:08.953Z,5.03
2024-02-13T22:07:38.991Z,5.01
2024-02-13T22:10:06.717Z,5.09
2024-02-13T22:12:33.223Z,4.94
2024-02-13T22:14:59.806Z,5.00
2024-02-13T22:17:26.405Z,4.77
2024-02-13T22:19:57.778Z,4.86
2024-02-13T22:22:24.321Z,4.95
2024-02-13T22:24:51.678Z,4.83
2024-02-13T22:27:21.447Z,4.51
2024-02-13T22:29:50.371Z,4.75
2024-02-13T22:32:18.335Z,4.84
2024-02-13T22:34:47.617Z,4.84
2024-02-13T22:37:16.565Z,4.62
2024-02-13T22:39:43.783Z,4.72
2024-02-13T22:42:12.690Z,4.83
2024-02-13T22:44:39.761Z,4.68
2024-02-13T22:47:09.811Z,4.60
2024-02-13T22:49:38.592Z,4.54
2024-02-13T22:52:05.183Z,4.64
2024-02-13T22:54:33.970Z,4.70
2024-02-13T22:57:00.767Z,4.72
2024-02-13T22:59:27.347Z,4.85
2024-02-13T23:01:55.020Z,4.87
2024-02-13T23:04:21.762Z,4.94
2024-02-13T23:06:50.926Z,4.87
2024-02-13T23:09:18.014Z,4.89
2024-02-13T23:11:48.651Z,4.61
2024-02-13T23:14:15.595Z,4.78
2024-02-13T23:16:46.891Z,4.38
2024-02-13T23:19:16.150Z,4.67
2024-02-13T23:21:47.540Z,4.60
2024-02-13T23:24:14.294Z,4.79
2024-02-13T23:26:41.361Z,4.80
2024-02-13T23:29:08.135Z,4.84
2024-02-13T23:31:34.605Z,4.81
2024-02-13T23:34:04.373Z,4.92
2024-02-13T23:36:30.972Z,4.87
2024-02-13T23:38:57.584Z,4.62
2024-02-13T23:41:26.434Z,4.52
2024-02-13T23:43:52.921Z,4.64
2024-02-13T23:46:21.760Z,4.77
2024-02-13T23:48:48.422Z,4.70
2024-02-13T23:51:18.061Z,4.82
2024-02-13T23:53:52.729Z,4.86
2024-02-13T23:56:19.448Z,4.90
2024-02-13T23:58:47.524Z,4.86
